Flight Track Log - Related Links

Times and Time Zones

All times are in EDT time to prevent confusion due to time zone crossing. See the ASQ6115 flight status page for this flight to view local times or setup timezone preferences in your user account.

Time Position Orientation Groundspeed Altitude Reporting Facility
EDT Latitude Longitude Course Direction KTS MPH feet Rate Location/Type
Wed 08:37:45 PM 43.0103 -89.2978 162° South 225 259 7,500  Level Chicago Center
Wed 08:38:47 PM 42.9317 -89.2639 162° South 283 326 10,300 1,694 Climbing Chicago Center
Wed 08:39:49 PM 42.8392 -89.2253 163° South 347 399 11,000 339 Climbing Chicago Center
Wed 08:40:51 PM 42.7283 -89.1786 163° South 356 410 11,000  Level Chicago Center
Wed 08:41:53 PM 42.6336 -89.1367 162° South 356 410 11,000  Level Chicago Center
Wed 08:42:55 PM 42.5478 -89.0647 148° Southeast 378 435 11,000  Level Chicago Center
Wed 08:43:57 PM 42.5067 -88.9347 113° Southeast 378 435 11,000 -242 Level Chicago Center
Wed 08:44:59 PM 42.4669 -88.8025 112° Southeast 380 437 10,500 -484 Descending Chicago Center
Wed 08:46:01 PM 42.4203 -88.6497 112° Southeast 377 434 10,000 -242 Descending Chicago Center
Wed 08:47:03 PM 42.3794 -88.5186 113° Southeast 377 434 10,000  Level Chicago Center
Wed 08:48:05 PM 42.3400 -88.3883 112° Southeast 371 427 10,000 -677 Level Chicago Center
Wed 08:49:07 PM 42.2906 -88.3047 129° Southeast 306 352 8,600 -1,258 Descending Chicago Center
Wed 08:50:09 PM 42.2383 -88.2203 130° Southeast 296 341 7,400 -774 Descending Chicago Center
Wed 08:51:11 PM 42.1744 -88.1214 131° Southeast 293 337 7,000 -194 Descending Chicago Center
Wed 08:52:13 PM 42.1125 -88.0531 141° Southeast 290 334 7,000  Level Chicago Center
Wed 08:53:15 PM 42.0928 -87.9519 105° East 288 331 7,000  Level Chicago Center
Wed 08:53:41 PM 42.1000 -87.9000 79° East 282 325 7,000 -488 Level Chicago TRACON
Wed 08:54:41 PM 42.1000 -87.8000 90° East 243 280 6,300 -1,150 Descending Chicago TRACON
Wed 08:55:41 PM 42.0833 -87.7167 105° East 250 288 4,700 -926 Descending Chicago TRACON
Wed 08:57:23 PM 42.0389 -87.6767 146° Southeast 201 231 3,800 -595 Descending Chicago Center
Wed 08:57:42 PM 42.0333 -87.6833 222° Southwest 175 201 3,500 -532 Descending Chicago TRACON
Wed 08:58:42 PM 42.0000 -87.7333 228° Southwest 159 183 3,100 -400 Descending Chicago TRACON

Login

Don't have an account? Register now (free) for customized features, flight alerts, and more!